Time;durP1;ratioP1;P1;durP2;ratioP2;P2;SDS_P1;SDS_P2;PMS_P1;PMS_P2;Temp;Humidity;BMP_temperature;BMP_pressure;BME280_temperature;BME280_humidity;BME280_pressure;Samples;Min_cycle;Max_cycle;Signal;HPM_P1;HPM_P2
2023/07/02 00:00:07;;;;;;;2.40;1.90;;;;;;;17.13;100.00;99615.56;5045154;28;20175;-56
2023/07/02 00:02:36;;;;;;;3.97;2.13;;;;;;;17.12;100.00;99619.22;5059222;28;20140;-54
2023/07/02 00:05:03;;;;;;;2.50;1.48;;;;;;;17.09;100.00;99621.38;5053983;28;20064;-54
2023/07/02 00:07:31;;;;;;;5.03;1.60;;;;;;;17.09;100.00;99608.91;5055674;28;20049;-59
2023/07/02 00:09:58;;;;;;;3.45;1.80;;;;;;;17.11;100.00;99606.94;5056685;28;20061;-55
2023/07/02 00:12:25;;;;;;;4.53;2.10;;;;;;;17.09;100.00;99614.22;5054733;28;20144;-56
2023/07/02 00:14:53;;;;;;;2.67;1.80;;;;;;;17.12;100.00;99616.56;5057594;28;20076;-54
2023/07/02 00:17:21;;;;;;;2.55;1.65;;;;;;;17.12;100.00;99629.03;5057723;28;20087;-50
2023/07/02 00:19:51;;;;;;;3.00;1.70;;;;;;;17.13;100.00;99631.53;5064377;28;20151;-53
2023/07/02 00:22:20;;;;;;;2.67;1.70;;;;;;;17.13;100.00;99620.88;5061847;28;20555;-56
2023/07/02 00:24:47;;;;;;;1.67;1.58;;;;;;;17.12;100.00;99623.72;5050632;28;20055;-53
2023/07/02 00:27:15;;;;;;;4.47;2.17;;;;;;;17.08;100.00;99619.69;5055478;28;20077;-56
2023/07/02 00:29:42;;;;;;;2.22;1.80;;;;;;;17.08;100.00;99625.03;5053715;28;20084;-54
2023/07/02 00:32:09;;;;;;;2.47;2.22;;;;;;;17.02;100.00;99621.16;5050194;28;20076;-54
2023/07/02 00:34:36;;;;;;;3.38;2.13;;;;;;;17.03;100.00;99629.97;5050360;28;20156;-56
2023/07/02 00:37:03;;;;;;;2.55;2.03;;;;;;;17.05;100.00;99627.97;5052754;28;20141;-54
2023/07/02 00:39:31;;;;;;;3.80;2.42;;;;;;;16.99;100.00;99626.78;5052653;28;20076;-54
2023/07/02 00:42:02;;;;;;;7.88;2.53;;;;;;;16.98;100.00;99637.59;5054729;28;20055;-57
2023/07/02 00:44:30;;;;;;;10.07;2.10;;;;;;;16.94;100.00;99645.03;5052154;28;20560;-58
2023/07/02 00:46:57;;;;;;;3.65;2.38;;;;;;;16.94;100.00;99637.06;5049456;28;20124;-56
2023/07/02 00:49:25;;;;;;;3.83;1.92;;;;;;;16.99;100.00;99644.56;5050590;28;20070;-55
2023/07/02 00:51:52;;;;;;;3.58;2.47;;;;;;;16.99;100.00;99636.59;5048088;28;20132;-55
2023/07/02 00:54:19;;;;;;;3.50;2.80;;;;;;;16.91;100.00;99646.16;5055563;28;20732;-53
2023/07/02 00:56:47;;;;;;;4.13;2.72;;;;;;;16.86;100.00;99642.31;5055077;28;20446;-53
2023/07/02 00:59:19;;;;;;;2.60;2.40;;;;;;;16.91;100.00;99640.03;5050309;28;20051;-50
2023/07/02 01:01:49;;;;;;;3.88;2.72;;;;;;;16.89;100.00;99647.31;5028135;28;20605;-55
2023/07/02 01:04:18;;;;;;;3.92;3.53;;;;;;;16.90;100.00;99617.09;5050400;28;20087;-56
2023/07/02 01:06:45;;;;;;;6.60;3.17;;;;;;;16.89;100.00;99636.69;5034309;28;20141;-57
2023/07/02 01:09:12;;;;;;;4.57;3.08;;;;;;;16.91;100.00;99643.50;5044286;28;20496;-55
2023/07/02 01:11:50;;;;;;;4.18;3.20;;;;;;;16.90;100.00;99635.69;5052472;28;20140;-52
2023/07/02 01:14:40;;;;;;;5.22;3.10;;;;;;;16.87;100.00;99633.34;5029394;28;20067;-53
2023/07/02 01:17:08;;;;;;;7.32;4.40;;;;;;;16.89;100.00;99644.66;5032203;28;20045;-59
2023/07/02 01:19:52;;;;;;;5.70;3.92;;;;;;;16.86;100.00;99637.81;5032130;28;20140;-53
2023/07/02 01:22:25;;;;;;;4.57;3.75;;;;;;;16.86;100.00;99660.91;5037192;28;20126;-54
2023/07/02 01:24:53;;;;;;;6.90;4.10;;;;;;;16.82;100.00;99647.09;5048269;28;20564;-54
2023/07/02 01:27:21;;;;;;;4.57;3.60;;;;;;;16.76;100.00;99649.53;5051891;28;20124;-58
2023/07/02 01:29:51;;;;;;;4.55;4.00;;;;;;;16.78;100.00;99645.72;5049197;28;20059;-56
2023/07/02 01:32:18;;;;;;;5.60;4.13;;;;;;;16.76;100.00;99650.38;5037968;28;20167;-56
2023/07/02 01:34:48;;;;;;;8.07;4.47;;;;;;;16.74;100.00;99651.50;5049633;28;20045;-54
2023/07/02 01:37:19;;;;;;;8.63;4.25;;;;;;;16.74;100.00;99652.34;5034556;28;20053;-53
2023/07/02 01:39:46;;;;;;;8.73;4.80;;;;;;;16.79;100.00;99646.56;5049767;28;20053;-58
2023/07/02 01:42:18;;;;;;;5.68;4.78;;;;;;;16.71;100.00;99657.94;5048302;28;20111;-56
2023/07/02 01:44:47;;;;;;;13.07;5.35;;;;;;;16.65;100.00;99643.44;5047290;28;20144;-57
2023/07/02 01:47:15;;;;;;;5.35;4.10;;;;;;;16.71;100.00;99664.09;5048457;28;20477;-60
2023/07/02 01:49:43;;;;;;;5.97;4.72;;;;;;;16.75;100.00;99658.47;5048064;28;20049;-52
2023/07/02 01:52:10;;;;;;;6.63;4.72;;;;;;;16.80;100.00;99656.22;5046827;28;20067;-56
2023/07/02 01:54:37;;;;;;;6.97;4.95;;;;;;;16.77;100.00;99661.84;5050113;28;20382;-55
2023/07/02 01:57:05;;;;;;;7.05;4.45;;;;;;;16.75;100.00;99663.81;5055167;28;20308;-55
2023/07/02 01:59:32;;;;;;;8.43;5.05;;;;;;;16.71;100.00;99672.06;5047732;28;20091;-56
2023/07/02 02:01:59;;;;;;;4.93;4.40;;;;;;;16.71;100.00;99663.25;5043589;28;20136;-57
2023/07/02 02:04:27;;;;;;;11.07;5.18;;;;;;;16.67;100.00;99662.72;5048847;28;20527;-55
2023/07/02 02:06:54;;;;;;;6.65;5.50;;;;;;;16.65;100.00;99662.03;5052510;28;20055;-52
2023/07/02 02:09:22;;;;;;;7.45;5.60;;;;;;;16.65;100.00;99659.38;5051586;28;20067;-55
2023/07/02 02:11:50;;;;;;;7.30;5.65;;;;;;;16.61;100.00;99670.47;5045988;28;20076;-52
2023/07/02 02:14:17;;;;;;;6.78;6.18;;;;;;;16.53;100.00;99671.25;5052314;28;20053;-53
2023/07/02 02:17:35;;;;;;;7.63;6.55;;;;;;;16.54;100.00;99666.75;5048194;28;20060;-54
2023/07/02 02:20:05;;;;;;;8.38;6.50;;;;;;;16.38;100.00;99667.44;5043284;28;20453;-53
2023/07/02 02:22:32;;;;;;;11.65;6.50;;;;;;;16.40;100.00;99665.47;5052225;28;20516;-54
2023/07/02 02:25:00;;;;;;;7.78;6.05;;;;;;;16.37;100.00;99679.88;5049823;28;20053;-54
2023/07/02 02:27:27;;;;;;;7.70;5.55;;;;;;;16.39;100.00;99671.75;5054387;28;20072;-54
2023/07/02 02:29:54;;;;;;;9.50;5.65;;;;;;;16.36;100.00;99672.91;5030290;28;20147;-54
2023/07/02 02:32:22;;;;;;;8.60;6.05;;;;;;;16.42;100.00;99679.41;5031848;28;20067;-55
2023/07/02 02:38:19;;;;;;;6.95;5.47;;;;;;;16.38;100.00;99684.19;5051102;28;20520;-55
2023/07/02 02:40:46;;;;;;;6.65;5.25;;;;;;;16.38;100.00;99689.50;5055452;28;20076;-58
2023/07/02 02:43:16;;;;;;;7.43;4.93;;;;;;;16.37;100.00;99679.88;5048952;28;20053;-54
2023/07/02 02:45:44;;;;;;;9.07;5.97;;;;;;;16.35;100.00;99681.84;5045390;28;20289;-56
2023/07/02 02:48:11;;;;;;;10.30;5.78;;;;;;;16.38;100.00;99684.19;5048365;28;20049;-57
2023/07/02 02:50:41;;;;;;;8.27;5.50;;;;;;;16.32;100.00;99678.66;5042708;28;22280;-57
2023/07/02 02:53:08;;;;;;;6.40;5.03;;;;;;;16.36;100.00;99672.91;5051960;28;20308;-57
2023/07/02 02:55:36;;;;;;;6.28;4.85;;;;;;;16.35;100.00;99678.38;5051798;28;20065;-55
2023/07/02 02:58:03;;;;;;;8.38;4.82;;;;;;;16.33;100.00;99677.66;5052766;28;20077;-52
2023/07/02 03:00:31;;;;;;;6.63;4.50;;;;;;;16.30;100.00;99683.28;5047554;28;20064;-57
2023/07/02 03:02:58;;;;;;;5.78;4.68;;;;;;;16.28;100.00;99678.13;5044377;28;20152;-59
2023/07/02 03:05:26;;;;;;;8.52;5.57;;;;;;;16.27;100.00;99680.94;5047231;28;20418;-52
2023/07/02 03:07:53;;;;;;;7.80;5.07;;;;;;;16.22;100.00;99683.22;5050497;28;20552;-55
2023/07/02 03:10:21;;;;;;;5.88;4.32;;;;;;;16.23;100.00;99690.19;5033656;28;20140;-55
2023/07/02 03:12:48;;;;;;;9.23;5.65;;;;;;;16.19;100.00;99689.63;5051704;28;20049;-53
2023/07/02 03:15:17;;;;;;;10.43;6.10;;;;;;;16.26;100.00;99695.22;5048586;28;20057;-57
2023/07/02 03:17:44;;;;;;;7.07;4.75;;;;;;;16.27;100.00;99686.25;5048050;28;20080;-53
2023/07/02 03:20:12;;;;;;;6.30;4.35;;;;;;;16.20;100.00;99686.81;5040950;28;20136;-55
2023/07/02 03:22:39;;;;;;;6.50;5.13;;;;;;;16.15;100.00;99697.06;5051523;28;20079;-56
2023/07/02 03:25:07;;;;;;;5.47;4.90;;;;;;;16.23;100.00;99700.81;5049610;28;20484;-58
2023/07/02 03:27:34;;;;;;;7.03;4.55;;;;;;;16.25;100.00;99701.47;5053408;28;20508;-59
2023/07/02 03:30:01;;;;;;;7.25;4.65;;;;;;;16.18;100.00;99695.94;5049451;28;20502;-57
2023/07/02 03:32:28;;;;;;;4.80;4.28;;;;;;;16.21;100.00;99695.66;5029110;28;20048;-56
2023/07/02 03:34:56;;;;;;;6.47;4.40;;;;;;;16.14;100.00;99695.41;5033283;28;20603;-59
2023/07/02 03:37:23;;;;;;;6.00;4.28;;;;;;;16.14;100.00;99697.22;5053983;28;20163;-58
2023/07/02 03:39:50;;;;;;;13.25;4.45;;;;;;;16.08;100.00;99693.34;5047038;28;20057;-58
2023/07/02 03:42:17;;;;;;;7.70;5.00;;;;;;;16.09;100.00;99699.50;5040593;28;20142;-61
2023/07/02 03:44:45;;;;;;;7.90;5.00;;;;;;;16.10;100.00;99696.69;5046828;28;20064;-57
2023/07/02 03:47:12;;;;;;;6.75;4.65;;;;;;;16.10;100.00;99696.69;5046037;28;20055;-60
2023/07/02 03:49:40;;;;;;;4.28;3.60;;;;;;;16.15;100.00;99701.53;5049409;28;20140;-60
2023/07/02 03:52:07;;;;;;;5.93;3.78;;;;;;;16.10;100.00;99702.00;5050256;28;20478;-58
2023/07/02 03:54:34;;;;;;;4.00;3.60;;;;;;;16.13;100.00;99703.53;5048559;28;20059;-57
2023/07/02 03:57:02;;;;;;;8.80;3.83;;;;;;;16.16;100.00;99697.91;5055169;28;20512;-60
2023/07/02 03:59:29;;;;;;;5.10;3.10;;;;;;;16.16;100.00;99701.38;5050186;28;20055;-59
2023/07/02 04:01:56;;;;;;;7.68;3.55;;;;;;;16.15;100.00;99710.34;5050369;28;20122;-58
2023/07/02 04:04:23;;;;;;;6.25;3.40;;;;;;;16.14;100.00;99707.84;5047516;28;20458;-55
2023/07/02 04:06:51;;;;;;;7.00;3.85;;;;;;;16.20;100.00;99707.25;5042191;28;20136;-59
2023/07/02 04:09:18;;;;;;;10.45;3.47;;;;;;;16.24;100.00;99718.41;5055497;28;20049;-55
2023/07/02 04:11:46;;;;;;;6.55;3.45;;;;;;;16.20;100.00;99723.16;5056842;28;20139;-57
2023/07/02 04:14:13;;;;;;;3.97;2.63;;;;;;;16.29;100.00;99721.44;5049789;28;20216;-59
2023/07/02 04:16:43;;;;;;;8.68;3.42;;;;;;;16.18;100.00;99728.63;5042256;28;20152;-58
2023/07/02 04:19:11;;;;;;;8.65;3.60;;;;;;;16.20;100.00;99717.84;5044153;28;20143;-57
2023/07/02 04:21:38;;;;;;;11.45;3.58;;;;;;;16.14;100.00;99719.28;5049582;28;20079;-59
2023/07/02 04:24:05;;;;;;;8.13;3.35;;;;;;;16.20;100.00;99715.19;5048156;28;20144;-58
2023/07/02 04:26:33;;;;;;;11.02;3.72;;;;;;;16.15;100.00;99718.31;5046889;28;20056;-61
2023/07/02 04:29:20;;;;;;;6.82;3.50;;;;;;;16.16;100.00;99727.09;5048926;28;20484;-59
2023/07/02 04:31:47;;;;;;;8.90;3.25;;;;;;;16.25;100.00;99726.22;5046106;28;20591;-55
2023/07/02 04:34:14;;;;;;;4.72;2.85;;;;;;;16.31;100.00;99727.47;5045539;28;20045;-58
2023/07/02 04:36:43;;;;;;;5.68;3.53;;;;;;;16.35;100.00;99728.84;5039421;28;20140;-59
2023/07/02 04:39:10;;;;;;;4.75;2.88;;;;;;;16.43;100.00;99735.03;5049072;28;20059;-56
2023/07/02 04:41:38;;;;;;;6.13;3.28;;;;;;;16.43;100.00;99742.19;5052931;28;20413;-59
2023/07/02 04:44:05;;;;;;;8.95;3.13;;;;;;;16.43;100.00;99744.84;5046808;28;20081;-58
2023/07/02 04:46:32;;;;;;;3.83;2.97;;;;;;;16.45;100.00;99748.19;5041606;28;20136;-58
2023/07/02 04:49:00;;;;;;;6.53;3.33;;;;;;;16.52;100.00;99749.25;5043920;28;20159;-59
2023/07/02 04:51:27;;;;;;;6.78;2.88;;;;;;;16.59;100.00;99760.13;5048728;28;20140;-59
2023/07/02 04:53:55;;;;;;;4.93;2.97;;;;;;;16.56;100.00;99758.59;5053242;28;20053;-57
2023/07/02 04:56:22;;;;;;;10.25;3.20;;;;;;;16.58;100.00;99754.00;5049849;28;20163;-59
2023/07/02 04:58:49;;;;;;;5.25;3.15;;;;;;;16.61;100.00;99742.22;5037636;28;20595;-59
2023/07/02 05:01:17;;;;;;;6.07;3.42;;;;;;;16.55;100.00;99754.28;5049281;28;20073;-59
2023/07/02 05:03:44;;;;;;;7.13;2.70;;;;;;;16.56;100.00;99755.09;5048114;28;20065;-51
2023/07/02 05:06:11;;;;;;;5.47;3.08;;;;;;;16.62;100.00;99755.38;5047486;28;20501;-60
2023/07/02 05:08:39;;;;;;;11.20;2.50;;;;;;;16.82;100.00;99761.41;5048609;28;20124;-56
2023/07/02 05:11:09;;;;;;;7.72;3.15;;;;;;;16.92;98.05;99759.50;5048652;28;20565;-55
2023/07/02 05:13:36;;;;;;;5.32;2.67;;;;;;;16.92;97.95;99762.16;5050723;28;20048;-53
2023/07/02 05:16:03;;;;;;;4.85;2.47;;;;;;;17.04;98.15;99760.09;5047247;28;20139;-57
2023/07/02 05:18:30;;;;;;;4.15;2.95;;;;;;;16.91;98.22;99765.78;5046875;28;20152;-56
2023/07/02 05:20:58;;;;;;;6.50;2.50;;;;;;;17.00;97.81;99766.72;5046879;28;20545;-55
2023/07/02 05:23:25;;;;;;;5.90;2.85;;;;;;;17.06;96.99;99765.25;5046720;28;20217;-57
2023/07/02 05:25:52;;;;;;;6.90;2.40;;;;;;;17.14;95.66;99781.28;5030294;28;20068;-59
2023/07/02 05:28:20;;;;;;;6.03;2.33;;;;;;;17.31;93.76;99780.44;5055608;28;20091;-60
2023/07/02 05:30:47;;;;;;;13.60;3.50;;;;;;;17.28;93.41;99772.75;5048400;28;20075;-56
2023/07/02 05:33:14;;;;;;;6.65;3.05;;;;;;;17.34;94.18;99766.84;5046018;28;20059;-58
2023/07/02 05:35:42;;;;;;;3.85;2.10;;;;;;;17.36;91.04;99782.63;5045988;28;20408;-58
2023/07/02 05:38:09;;;;;;;5.25;2.97;;;;;;;17.26;90.99;99773.91;5046902;28;20047;-57
2023/07/02 05:40:37;;;;;;;8.18;2.80;;;;;;;17.21;91.78;99771.72;5048721;28;20079;-59
2023/07/02 05:43:04;;;;;;;5.97;2.72;;;;;;;17.38;90.66;99777.97;5053626;28;20155;-53
2023/07/02 05:45:37;;;;;;;5.53;2.47;;;;;;;17.58;89.75;99774.16;5055594;28;20474;-57
2023/07/02 05:48:04;;;;;;;4.82;2.47;;;;;;;17.68;89.45;99785.53;5051865;28;20080;-58
2023/07/02 05:50:32;;;;;;;8.88;3.38;;;;;;;17.53;88.69;99786.25;5046614;28;20585;-59
2023/07/02 05:52:59;;;;;;;6.78;3.05;;;;;;;17.37;88.77;99773.66;5049063;28;20533;-53
2023/07/02 05:55:26;;;;;;;6.45;2.42;;;;;;;17.24;88.53;99786.53;5049046;28;20144;-52
2023/07/02 05:57:54;;;;;;;8.25;2.80;;;;;;;17.12;86.58;99786.78;5057204;28;20480;-59
2023/07/02 06:00:21;;;;;;;9.15;2.50;;;;;;;17.24;87.53;99787.34;5045520;28;20120;-59
2023/07/02 06:02:49;;;;;;;8.60;2.90;;;;;;;17.35;87.73;99788.97;5048705;28;20089;-57
2023/07/02 06:05:16;;;;;;;3.25;2.45;;;;;;;17.44;86.92;99790.69;5046352;28;20128;-58
2023/07/02 06:07:43;;;;;;;20.88;3.25;;;;;;;17.53;85.97;99786.25;5048102;28;20049;-57
2023/07/02 06:10:11;;;;;;;6.32;2.50;;;;;;;17.78;86.12;99789.94;5052098;28;20333;-59
2023/07/02 06:12:38;;;;;;;7.25;2.20;;;;;;;17.81;83.35;99801.13;5056197;28;20064;-57
2023/07/02 06:15:06;;;;;;;6.03;2.40;;;;;;;17.91;82.49;99785.84;5050917;28;20389;-58
2023/07/02 06:17:33;;;;;;;6.20;2.70;;;;;;;18.05;81.94;99779.09;5046088;28;20128;-56
2023/07/02 06:20:07;;;;;;;6.00;3.03;;;;;;;18.02;81.41;99773.28;5045892;28;20053;-55
2023/07/02 06:22:34;;;;;;;9.20;2.92;;;;;;;17.97;79.27;99784.41;5048383;28;20208;-55
2023/07/02 06:25:01;;;;;;;7.45;2.95;;;;;;;18.11;77.20;99777.66;5046267;28;20106;-53
2023/07/02 06:27:32;;;;;;;10.65;3.10;;;;;;;18.29;77.84;99785.56;5053012;28;20080;-57
2023/07/02 06:29:59;;;;;;;8.45;2.90;;;;;;;18.08;76.03;99789.44;5048119;28;20057;-58
2023/07/02 06:32:26;;;;;;;7.45;2.70;;;;;;;18.17;75.84;99783.16;5047355;28;20159;-59
2023/07/02 06:34:53;;;;;;;3.72;2.65;;;;;;;18.03;75.74;99789.09;5045849;28;20096;-58
2023/07/02 06:37:21;;;;;;;4.88;2.95;;;;;;;17.99;75.04;99787.75;5047096;28;20059;-56
2023/07/02 06:39:48;;;;;;;6.25;3.05;;;;;;;18.13;74.55;99780.97;5043067;28;20078;-59
2023/07/02 06:42:15;;;;;;;7.75;3.15;;;;;;;18.13;74.45;99763.16;5053062;28;20053;-57
2023/07/02 06:44:42;;;;;;;6.43;3.33;;;;;;;18.10;74.42;99771.50;5051731;28;20053;-56
2023/07/02 06:47:10;;;;;;;7.20;3.15;;;;;;;18.30;73.34;99781.88;5047885;28;20053;-56
2023/07/02 06:49:37;;;;;;;6.53;2.63;;;;;;;18.38;73.55;99789.91;5041790;28;20153;-58
2023/07/02 06:52:04;;;;;;;5.65;2.60;;;;;;;18.62;72.58;99790.00;5047449;28;20112;-57
2023/07/02 06:54:32;;;;;;;7.28;3.30;;;;;;;18.71;72.12;99783.72;5032137;28;20587;-54
2023/07/02 06:56:59;;;;;;;3.97;2.38;;;;;;;19.14;71.25;99788.97;5049228;28;20128;-56
2023/07/02 06:59:26;;;;;;;4.35;2.70;;;;;;;19.32;69.80;99794.09;5053516;28;20505;-56
2023/07/02 07:01:53;;;;;;;4.60;2.70;;;;;;;19.13;68.60;99793.44;5051627;28;21041;-58
2023/07/02 07:04:21;;;;;;;5.03;2.50;;;;;;;19.11;69.35;99783.94;5049361;28;20079;-58
2023/07/02 07:06:48;;;;;;;4.57;2.50;;;;;;;18.97;67.54;99777.44;5050399;28;20128;-60
2023/07/02 07:09:17;;;;;;;6.05;2.90;;;;;;;19.11;67.90;99789.28;5051498;28;20144;-57
2023/07/02 07:11:45;;;;;;;6.47;2.72;;;;;;;19.00;69.22;99789.59;5052453;28;20106;-60
2023/07/02 07:14:12;;;;;;;6.60;2.83;;;;;;;19.05;69.11;99776.59;5052730;28;20052;-56
2023/07/02 07:16:39;;;;;;;7.63;3.35;;;;;;;19.05;68.74;99787.25;5033233;28;20087;-58
2023/07/02 07:19:07;;;;;;;6.35;2.95;;;;;;;18.80;69.02;99799.72;5048428;28;20057;-59
2023/07/02 07:21:34;;;;;;;7.32;2.90;;;;;;;18.98;69.42;99806.59;5049862;28;20164;-58
2023/07/02 07:24:02;;;;;;;6.47;3.25;;;;;;;19.02;68.84;99795.59;5047053;28;20697;-56
2023/07/02 07:26:29;;;;;;;6.57;3.10;;;;;;;19.14;67.88;99781.78;5050608;28;20439;-57
2023/07/02 07:28:57;;;;;;;4.57;2.80;;;;;;;19.09;67.12;99792.13;5055447;28;20156;-58
2023/07/02 07:31:25;;;;;;;5.30;2.53;;;;;;;18.96;67.91;99797.09;5049410;28;20073;-58
2023/07/02 07:33:52;;;;;;;11.15;2.90;;;;;;;18.75;68.54;99797.56;5050158;28;20692;-59
2023/07/02 07:36:19;;;;;;;8.48;2.97;;;;;;;19.07;68.03;99791.44;5049467;28;20068;-59
2023/07/02 07:38:46;;;;;;;7.72;3.20;;;;;;;19.43;65.77;99791.94;5047086;28;20076;-51
2023/07/02 07:41:14;;;;;;;8.52;2.75;;;;;;;19.37;64.48;99789.13;5050037;28;20103;-57
2023/07/02 07:43:41;;;;;;;6.55;3.50;;;;;;;19.48;64.76;99802.94;5053846;28;20528;-55
2023/07/02 07:46:08;;;;;;;4.07;2.88;;;;;;;19.42;63.62;99798.28;5051765;28;20077;-59
2023/07/02 07:48:35;;;;;;;7.53;2.90;;;;;;;19.17;64.34;99820.63;5044724;28;20331;-58
2023/07/02 07:51:03;;;;;;;5.07;2.50;;;;;;;19.01;64.82;99816.13;5048650;28;20049;-57
2023/07/02 07:53:30;;;;;;;4.72;2.50;;;;;;;18.68;65.58;99810.66;5050000;28;20242;-57
2023/07/02 07:55:58;;;;;;;4.93;2.92;;;;;;;18.76;66.09;99814.38;5049239;28;20136;-56
2023/07/02 07:58:25;;;;;;;6.55;2.90;;;;;;;18.72;66.69;99817.38;5050226;28;20596;-59
2023/07/02 08:00:52;;;;;;;4.88;2.67;;;;;;;18.64;67.41;99816.47;5056521;28;20073;-57
2023/07/02 08:03:20;;;;;;;7.05;3.22;;;;;;;18.51;68.70;99824.09;5053890;28;20473;-57
2023/07/02 08:05:47;;;;;;;6.18;2.33;;;;;;;18.46;68.96;99848.56;5049865;28;20068;-57
2023/07/02 08:08:14;;;;;;;4.78;2.70;;;;;;;18.17;69.57;99824.97;5055081;28;20060;-59
2023/07/02 08:10:42;;;;;;;3.90;2.50;;;;;;;18.16;70.50;99842.78;5047841;28;20570;-59
2023/07/02 08:13:09;;;;;;;6.45;2.55;;;;;;;18.14;70.22;99846.56;5055414;28;20059;-59
2023/07/02 08:15:37;;;;;;;5.43;2.67;;;;;;;18.19;70.91;99849.59;5055426;28;20484;-57
2023/07/02 08:18:07;;;;;;;5.63;2.50;;;;;;;18.22;71.27;99842.13;5050287;28;20052;-58
2023/07/02 08:20:34;;;;;;;4.05;2.55;;;;;;;18.23;71.79;99861.59;5047259;28;20146;-58
2023/07/02 08:23:01;;;;;;;8.75;3.50;;;;;;;18.12;71.87;99843.25;5049579;28;20061;-55
2023/07/02 08:25:29;;;;;;;5.97;3.20;;;;;;;18.03;71.70;99834.38;5051399;28;20087;-53
2023/07/02 08:27:56;;;;;;;13.18;3.28;;;;;;;18.11;71.87;99842.41;5052940;28;20049;-55
2023/07/02 08:30:24;;;;;;;8.82;3.00;;;;;;;18.01;72.59;99839.00;5052299;28;20069;-55
2023/07/02 08:32:54;;;;;;;8.20;3.13;;;;;;;18.05;71.50;99837.69;5046300;28;20657;-58
2023/07/02 08:35:21;;;;;;;3.75;2.22;;;;;;;18.05;71.24;99844.84;5049164;28;20135;-57
2023/07/02 08:37:49;;;;;;;9.05;3.40;;;;;;;18.14;69.90;99836.75;5031113;28;20080;-59
2023/07/02 08:40:19;;;;;;;5.97;3.45;;;;;;;18.19;69.72;99833.59;5049348;28;20613;-58
2023/07/02 08:42:47;;;;;;;5.15;3.15;;;;;;;18.44;69.73;99842.56;5052891;28;20131;-59
2023/07/02 08:45:16;;;;;;;7.18;3.20;;;;;;;18.41;70.32;99857.03;5052655;28;20136;-59
2023/07/02 08:47:45;;;;;;;14.45;3.50;;;;;;;18.24;70.15;99839.31;5047524;28;20136;-58
2023/07/02 08:50:13;;;;;;;8.05;3.15;;;;;;;18.40;70.25;99838.56;5045485;28;20545;-59
2023/07/02 08:52:42;;;;;;;8.57;3.85;;;;;;;18.40;68.38;99850.03;5050086;28;20117;-60
2023/07/02 08:55:10;;;;;;;9.00;3.60;;;;;;;18.49;68.27;99856.25;5049844;28;20164;-57
2023/07/02 08:57:37;;;;;;;11.25;4.47;;;;;;;18.32;67.05;99843.84;5048730;28;20076;-58
2023/07/02 09:00:09;;;;;;;10.35;3.92;;;;;;;18.34;64.99;99850.69;5052719;28;20156;-56
2023/07/02 09:02:37;;;;;;;6.60;3.63;;;;;;;18.38;63.98;99854.72;5050947;28;20112;-53
2023/07/02 09:05:04;;;;;;;7.22;3.65;;;;;;;18.37;63.44;99844.19;5047692;28;20475;-56
2023/07/02 09:07:32;;;;;;;8.55;3.78;;;;;;;18.54;62.26;99845.94;5048655;28;20149;-59
2023/07/02 09:09:59;;;;;;;7.93;3.80;;;;;;;18.81;61.06;99847.56;5047888;28;20059;-60
2023/07/02 09:12:27;;;;;;;6.75;3.70;;;;;;;18.79;61.09;99848.72;5053736;28;20087;-59
2023/07/02 09:14:56;;;;;;;12.93;4.15;;;;;;;18.92;59.95;99849.94;5048920;28;20087;-58
2023/07/02 09:17:35;;;;;;;5.35;3.50;;;;;;;19.04;59.45;99857.63;5049583;28;20136;-59
2023/07/02 09:20:08;;;;;;;7.57;4.18;;;;;;;19.23;59.02;99844.81;5047530;28;20111;-60
2023/07/02 09:22:36;;;;;;;8.05;4.10;;;;;;;19.44;58.92;99867.50;5051578;28;20045;-60
2023/07/02 09:25:03;;;;;;;13.13;4.10;;;;;;;19.55;58.15;99866.38;5043915;28;20084;-58
2023/07/02 09:27:41;;;;;;;6.32;3.95;;;;;;;19.83;56.93;99865.03;5050895;28;20151;-59
2023/07/02 09:30:10;;;;;;;10.07;4.40;;;;;;;19.61;56.16;99869.22;5052660;28;20049;-57
2023/07/02 09:32:37;;;;;;;10.73;5.13;;;;;;;19.47;57.24;99873.34;5049765;28;20123;-56
2023/07/02 09:35:05;;;;;;;7.22;4.00;;;;;;;19.64;56.99;99858.22;5046182;28;20318;-59
2023/07/02 09:37:33;;;;;;;7.80;4.28;;;;;;;19.69;56.08;99869.22;5046781;28;20537;-59
2023/07/02 09:40:01;;;;;;;9.75;4.65;;;;;;;19.61;55.72;99866.56;5030201;28;20136;-58
2023/07/02 09:42:29;;;;;;;8.88;4.65;;;;;;;19.64;56.12;99866.22;5049792;28;20067;-56
2023/07/02 09:44:58;;;;;;;8.52;5.05;;;;;;;19.84;55.04;99871.22;5053140;28;20148;-55
2023/07/02 09:47:26;;;;;;;11.30;5.53;;;;;;;19.98;55.41;99875.88;5048709;28;20159;-57
2023/07/02 09:49:55;;;;;;;8.90;4.63;;;;;;;20.12;54.42;99872.50;5028740;28;20462;-58
2023/07/02 09:52:23;;;;;;;8.15;5.53;;;;;;;19.78;54.92;99863.88;5030580;28;20068;-56
2023/07/02 09:54:50;;;;;;;13.48;5.28;;;;;;;19.98;53.71;99875.88;5024880;28;20056;-57
2023/07/02 09:57:17;;;;;;;13.18;6.07;;;;;;;19.82;54.45;99874.06;5056064;28;20063;-56
2023/07/02 09:59:45;;;;;;;16.02;6.35;;;;;;;19.81;53.85;99871.53;5052163;28;20080;-55
2023/07/02 10:02:12;;;;;;;9.77;5.07;;;;;;;20.05;54.32;99860.00;5034085;28;20072;-56
2023/07/02 10:04:41;;;;;;;11.30;5.85;;;;;;;20.15;53.51;99874.84;5047193;28;20077;-58
2023/07/02 10:07:09;;;;;;;10.95;5.65;;;;;;;19.95;53.66;99868.22;5029419;28;20087;-57
2023/07/02 10:09:43;;;;;;;12.52;5.15;;;;;;;20.03;54.40;99862.81;5029703;28;20110;-58
2023/07/02 10:12:23;;;;;;;14.35;7.05;;;;;;;20.08;54.88;99860.47;5049454;28;20131;-59
2023/07/02 10:14:52;;;;;;;16.25;6.88;;;;;;;20.17;54.27;99850.59;5052318;28;20132;-55
2023/07/02 10:17:34;;;;;;;14.73;6.13;;;;;;;20.07;54.85;99869.50;5045740;28;20429;-57
2023/07/02 10:20:11;;;;;;;11.85;5.65;;;;;;;19.81;55.23;99880.38;5048328;28;20049;-60
2023/07/02 10:22:45;;;;;;;13.02;5.85;;;;;;;20.22;53.84;99859.78;5047709;28;20569;-53
2023/07/02 10:25:12;;;;;;;13.18;5.95;;;;;;;20.72;53.99;99868.50;5028667;28;20079;-56
2023/07/02 10:27:41;;;;;;;12.20;6.22;;;;;;;20.95;53.11;99861.34;5051849;28;20151;-58
2023/07/02 10:30:10;;;;;;;16.60;6.00;;;;;;;20.92;53.17;99864.38;5055757;28;20056;-58
2023/07/02 10:32:38;;;;;;;14.88;5.80;;;;;;;20.79;52.33;99855.25;5031964;28;20132;-58
2023/07/02 10:35:18;;;;;;;17.63;6.10;;;;;;;20.42;54.36;99860.22;5049037;28;20142;-60
2023/07/02 10:37:45;;;;;;;14.90;6.15;;;;;;;20.78;53.27;99850.91;5046534;28;20061;-59
2023/07/02 10:40:13;;;;;;;12.50;5.82;;;;;;;21.30;52.77;99863.63;5046657;28;20049;-57
2023/07/02 10:42:50;;;;;;;13.52;5.60;;;;;;;21.47;52.20;99854.50;5053449;28;20057;-60
2023/07/02 10:45:19;;;;;;;13.57;6.13;;;;;;;21.54;52.07;99855.47;5054818;28;20135;-57
2023/07/02 10:47:46;;;;;;;12.50;6.07;;;;;;;21.11;52.54;99841.66;5053577;28;20543;-57
2023/07/02 10:50:18;;;;;;;10.52;5.28;;;;;;;21.23;52.85;99856.31;5047509;28;20053;-57
2023/07/02 10:52:46;;;;;;;11.38;6.03;;;;;;;20.96;53.44;99864.88;5050446;28;20437;-57
2023/07/02 10:55:21;;;;;;;16.17;6.82;;;;;;;20.94;52.55;99861.53;5051550;28;20071;-60
2023/07/02 10:57:50;;;;;;;15.70;6.63;;;;;;;20.91;52.01;99861.88;5050955;28;20580;-58
2023/07/02 11:00:19;;;;;;;15.07;6.70;;;;;;;20.88;51.58;99883.63;5053966;28;20146;-59
2023/07/02 11:02:46;;;;;;;12.05;6.70;;;;;;;21.12;50.96;99851.38;5053116;28;20381;-59
2023/07/02 11:05:14;;;;;;;15.60;6.47;;;;;;;21.35;50.58;99864.81;5051154;28;20095;-58
2023/07/02 11:07:42;;;;;;;14.30;6.55;;;;;;;21.10;51.04;99861.44;5047856;28;20076;-58
2023/07/02 11:10:17;;;;;;;13.48;6.57;;;;;;;21.11;51.37;99872.97;5051588;28;20108;-56
2023/07/02 11:12:45;;;;;;;11.68;6.28;;;;;;;20.97;51.88;99871.88;5057141;28;20061;-59
2023/07/02 11:15:14;;;;;;;14.02;6.30;;;;;;;20.77;52.27;99874.16;5063762;28;20048;-53
2023/07/02 11:17:42;;;;;;;12.15;5.75;;;;;;;20.56;52.37;99881.94;5041292;28;20678;-59
2023/07/02 11:20:12;;;;;;;18.35;6.85;;;;;;;20.63;52.74;99874.91;5051769;28;20140;-56
2023/07/02 11:22:40;;;;;;;15.70;6.32;;;;;;;20.79;52.13;99863.28;5049066;28;20127;-57
2023/07/02 11:25:12;;;;;;;13.10;6.13;;;;;;;21.00;51.98;99863.50;5049117;28;20085;-56
2023/07/02 11:27:39;;;;;;;16.63;6.38;;;;;;;21.38;51.69;99880.50;5056922;28;20049;-57
2023/07/02 11:30:07;;;;;;;15.38;7.13;;;;;;;21.58;51.06;99882.72;5054169;28;20178;-56
2023/07/02 11:32:47;;;;;;;11.77;6.30;;;;;;;21.89;51.07;99888.81;5054480;28;20605;-57
2023/07/02 11:35:15;;;;;;;19.08;7.07;;;;;;;21.97;48.25;99887.88;5046240;28;20053;-56